sensor_id;sensor_type;location;lat;lon;timestamp;pressure;altitude;pressure_sealevel;temperature;humidity
39363;BME280;25088;43.238;23.110;2022-07-29T00:02:21;96633.78;;;22.70;89.94
39363;BME280;25088;43.238;23.110;2022-07-29T00:04:46;96607.81;;;22.49;90.20
39363;BME280;25088;43.238;23.110;2022-07-29T00:07:12;96631.00;;;22.61;89.89
39363;BME280;25088;43.238;23.110;2022-07-29T00:09:37;96637.09;;;22.63;89.79
39363;BME280;25088;43.238;23.110;2022-07-29T00:12:03;96628.41;;;22.65;89.38
39363;BME280;25088;43.238;23.110;2022-07-29T00:14:28;96633.63;;;22.66;89.30
39363;BME280;25088;43.238;23.110;2022-07-29T00:16:54;96629.09;;;22.53;90.47
39363;BME280;25088;43.238;23.110;2022-07-29T00:19:19;96618.78;;;22.28;92.10
39363;BME280;25088;43.238;23.110;2022-07-29T00:21:45;96642.03;;;22.49;91.90
39363;BME280;25088;43.238;23.110;2022-07-29T00:24:10;96641.50;;;22.56;91.52
39363;BME280;25088;43.238;23.110;2022-07-29T00:26:36;96634.44;;;22.67;90.84
39363;BME280;25088;43.238;23.110;2022-07-29T00:29:03;96638.25;;;22.54;92.15
39363;BME280;25088;43.238;23.110;2022-07-29T00:31:29;96642.50;;;22.51;90.63
39363;BME280;25088;43.238;23.110;2022-07-29T00:33:55;96610.13;;;22.38;90.96
39363;BME280;25088;43.238;23.110;2022-07-29T00:36:21;96623.03;;;22.42;91.02
39363;BME280;25088;43.238;23.110;2022-07-29T00:38:50;96630.56;;;22.51;90.27
39363;BME280;25088;43.238;23.110;2022-07-29T00:41:17;96642.66;;;22.46;90.92
39363;BME280;25088;43.238;23.110;2022-07-29T00:43:43;96635.31;;;22.50;91.01
39363;BME280;25088;43.238;23.110;2022-07-29T00:46:09;96592.81;;;22.24;90.52
39363;BME280;25088;43.238;23.110;2022-07-29T00:48:35;96631.53;;;22.46;91.30
39363;BME280;25088;43.238;23.110;2022-07-29T00:51:05;96622.72;;;22.44;91.34
39363;BME280;25088;43.238;23.110;2022-07-29T00:53:31;96612.41;;;22.36;91.31
39363;BME280;25088;43.238;23.110;2022-07-29T00:55:57;96602.28;;;22.31;92.04
39363;BME280;25088;43.238;23.110;2022-07-29T00:58:24;96606.56;;;22.20;92.51
39363;BME280;25088;43.238;23.110;2022-07-29T01:00:52;96611.44;;;22.32;92.08
39363;BME280;25088;43.238;23.110;2022-07-29T01:03:18;96602.44;;;22.35;91.80
39363;BME280;25088;43.238;23.110;2022-07-29T01:05:45;96615.38;;;22.31;92.68
39363;BME280;25088;43.238;23.110;2022-07-29T01:08:15;96616.81;;;22.37;92.16
39363;BME280;25088;43.238;23.110;2022-07-29T01:10:41;96621.09;;;22.43;92.59
39363;BME280;25088;43.238;23.110;2022-07-29T01:13:10;96624.00;;;22.55;91.59
39363;BME280;25088;43.238;23.110;2022-07-29T01:15:49;96590.78;;;22.59;89.84
39363;BME280;25088;43.238;23.110;2022-07-29T01:18:20;96599.06;;;22.67;89.95
39363;BME280;25088;43.238;23.110;2022-07-29T01:23:40;96610.88;;;22.64;90.82
39363;BME280;25088;43.238;23.110;2022-07-29T01:28:59;96609.28;;;22.55;92.12
39363;BME280;25088;43.238;23.110;2022-07-29T01:34:27;96599.41;;;22.75;90.38
39363;BME280;25088;43.238;23.110;2022-07-29T01:37:01;96591.94;;;22.58;91.53
39363;BME280;25088;43.238;23.110;2022-07-29T01:39:35;96576.41;;;22.48;92.35
39363;BME280;25088;43.238;23.110;2022-07-29T01:44:57;96564.78;;;22.37;92.58
39363;BME280;25088;43.238;23.110;2022-07-29T01:47:29;96588.34;;;22.49;92.77
39363;BME280;25088;43.238;23.110;2022-07-29T01:49:58;96578.38;;;22.39;93.56
39363;BME280;25088;43.238;23.110;2022-07-29T01:52:35;96563.97;;;22.37;93.11
39363;BME280;25088;43.238;23.110;2022-07-29T01:55:10;96557.78;;;22.23;93.42
39363;BME280;25088;43.238;23.110;2022-07-29T01:57:38;96555.19;;;22.09;95.06
39363;BME280;25088;43.238;23.110;2022-07-29T02:00:05;96550.59;;;21.87;96.70
39363;BME280;25088;43.238;23.110;2022-07-29T02:02:32;96564.84;;;22.11;96.95
39363;BME280;25088;43.238;23.110;2022-07-29T02:05:02;96556.66;;;22.24;95.94
39363;BME280;25088;43.238;23.110;2022-07-29T02:07:29;96524.44;;;22.05;95.62
39363;BME280;25088;43.238;23.110;2022-07-29T02:09:56;96549.59;;;22.35;95.06
39363;BME280;25088;43.238;23.110;2022-07-29T02:12:24;96541.44;;;22.30;94.32
39363;BME280;25088;43.238;23.110;2022-07-29T02:14:53;96547.50;;;22.14;95.01
39363;BME280;25088;43.238;23.110;2022-07-29T02:17:25;96533.25;;;22.07;95.57
39363;BME280;25088;43.238;23.110;2022-07-29T02:19:55;96547.16;;;22.16;95.65
39363;BME280;25088;43.238;23.110;2022-07-29T02:22:23;96549.78;;;22.30;95.11
39363;BME280;25088;43.238;23.110;2022-07-29T02:24:50;96519.69;;;22.06;95.02
39363;BME280;25088;43.238;23.110;2022-07-29T02:27:18;96534.75;;;22.05;95.65
39363;BME280;25088;43.238;23.110;2022-07-29T02:29:45;96542.28;;;22.13;95.30
39363;BME280;25088;43.238;23.110;2022-07-29T02:32:13;96506.00;;;21.83;95.46
39363;BME280;25088;43.238;23.110;2022-07-29T02:34:40;96548.13;;;22.03;96.32
39363;BME280;25088;43.238;23.110;2022-07-29T02:37:09;96528.38;;;22.04;95.55
39363;BME280;25088;43.238;23.110;2022-07-29T02:39:35;96542.56;;;22.03;96.03
39363;BME280;25088;43.238;23.110;2022-07-29T02:42:05;96549.63;;;21.91;97.38
39363;BME280;25088;43.238;23.110;2022-07-29T02:44:33;96547.34;;;21.85;97.93
39363;BME280;25088;43.238;23.110;2022-07-29T02:49:37;96497.81;;;21.52;97.90
39363;BME280;25088;43.238;23.110;2022-07-29T02:54:51;96546.19;;;21.86;97.81
39363;BME280;25088;43.238;23.110;2022-07-29T02:57:22;96539.50;;;21.87;97.37
39363;BME280;25088;43.238;23.110;2022-07-29T02:59:53;96537.53;;;22.05;96.13
39363;BME280;25088;43.238;23.110;2022-07-29T03:02:23;96543.25;;;22.08;95.31
39363;BME280;25088;43.238;23.110;2022-07-29T03:04:51;96542.75;;;22.06;95.41
39363;BME280;25088;43.238;23.110;2022-07-29T03:07:18;96527.38;;;22.09;94.52
39363;BME280;25088;43.238;23.110;2022-07-29T03:09:45;96537.03;;;22.11;94.86
39363;BME280;25088;43.238;23.110;2022-07-29T03:12:12;96546.69;;;22.14;94.71
39363;BME280;25088;43.238;23.110;2022-07-29T03:14:39;96551.59;;;22.08;95.58
39363;BME280;25088;43.238;23.110;2022-07-29T03:17:05;96557.00;;;22.13;95.59
39363;BME280;25088;43.238;23.110;2022-07-29T03:19:31;96539.31;;;22.01;96.04
39363;BME280;25088;43.238;23.110;2022-07-29T03:21:57;96512.84;;;21.86;95.87
39363;BME280;25088;43.238;23.110;2022-07-29T03:24:27;96548.97;;;22.21;94.99
39363;BME280;25088;43.238;23.110;2022-07-29T03:26:54;96554.81;;;22.28;93.90
39363;BME280;25088;43.238;23.110;2022-07-29T03:29:20;96546.19;;;22.29;93.91
39363;BME280;25088;43.238;23.110;2022-07-29T03:31:45;96525.28;;;22.14;93.90
39363;BME280;25088;43.238;23.110;2022-07-29T03:34:11;96556.47;;;22.29;93.96
39363;BME280;25088;43.238;23.110;2022-07-29T03:36:36;96535.88;;;22.21;93.81
39363;BME280;25088;43.238;23.110;2022-07-29T03:39:03;96543.22;;;22.26;93.21
39363;BME280;25088;43.238;23.110;2022-07-29T03:41:30;96565.75;;;22.50;92.52
39363;BME280;25088;43.238;23.110;2022-07-29T03:43:58;96562.81;;;22.47;92.74
39363;BME280;25088;43.238;23.110;2022-07-29T03:46:26;96569.00;;;22.52;92.46
39363;BME280;25088;43.238;23.110;2022-07-29T03:48:58;96574.91;;;22.51;92.45
39363;BME280;25088;43.238;23.110;2022-07-29T03:51:25;96550.84;;;22.55;90.87
39363;BME280;25088;43.238;23.110;2022-07-29T03:53:51;96540.53;;;22.55;90.32
39363;BME280;25088;43.238;23.110;2022-07-29T03:56:22;96541.88;;;22.40;91.71
39363;BME280;25088;43.238;23.110;2022-07-29T03:58:50;96576.34;;;22.65;91.64
39363;BME280;25088;43.238;23.110;2022-07-29T04:01:17;96558.94;;;22.77;90.43
39363;BME280;25088;43.238;23.110;2022-07-29T04:03:44;96574.16;;;22.88;89.92
39363;BME280;25088;43.238;23.110;2022-07-29T04:06:12;96573.25;;;23.05;88.72
39363;BME280;25088;43.238;23.110;2022-07-29T04:08:38;96573.56;;;23.12;88.30
39363;BME280;25088;43.238;23.110;2022-07-29T04:11:04;96567.50;;;23.10;88.80
39363;BME280;25088;43.238;23.110;2022-07-29T04:13:31;96520.94;;;22.81;88.22
39363;BME280;25088;43.238;23.110;2022-07-29T04:15:57;96569.63;;;23.13;87.77
39363;BME280;25088;43.238;23.110;2022-07-29T04:18:23;96570.59;;;23.17;87.61
39363;BME280;25088;43.238;23.110;2022-07-29T04:20:49;96554.22;;;23.07;87.21
39363;BME280;25088;43.238;23.110;2022-07-29T04:23:14;96570.78;;;23.12;87.89
39363;BME280;25088;43.238;23.110;2022-07-29T04:25:40;96563.25;;;23.13;88.18
39363;BME280;25088;43.238;23.110;2022-07-29T04:28:06;96563.25;;;23.13;88.58
39363;BME280;25088;43.238;23.110;2022-07-29T04:30:33;96572.50;;;23.26;88.06
39363;BME280;25088;43.238;23.110;2022-07-29T04:33:01;96564.47;;;23.24;87.97
39363;BME280;25088;43.238;23.110;2022-07-29T04:35:27;96568.25;;;23.49;87.28
39363;BME280;25088;43.238;23.110;2022-07-29T04:37:53;96577.69;;;23.57;86.95
39363;BME280;25088;43.238;23.110;2022-07-29T04:40:19;96572.66;;;23.50;87.18
39363;BME280;25088;43.238;23.110;2022-07-29T04:42:44;96579.88;;;23.51;87.57
39363;BME280;25088;43.238;23.110;2022-07-29T04:45:10;96568.91;;;23.46;87.74
39363;BME280;25088;43.238;23.110;2022-07-29T04:47:35;96582.38;;;23.44;87.94
39363;BME280;25088;43.238;23.110;2022-07-29T04:50:01;96576.03;;;23.35;88.61
39363;BME280;25088;43.238;23.110;2022-07-29T04:52:27;96566.53;;;23.36;88.58
39363;BME280;25088;43.238;23.110;2022-07-29T04:54:52;96558.94;;;23.45;87.00
39363;BME280;25088;43.238;23.110;2022-07-29T04:57:18;96583.84;;;23.71;87.57
39363;BME280;25088;43.238;23.110;2022-07-29T04:59:43;96577.31;;;23.67;87.10
39363;BME280;25088;43.238;23.110;2022-07-29T05:02:09;96581.47;;;23.82;86.00
39363;BME280;25088;43.238;23.110;2022-07-29T05:04:34;96590.53;;;23.79;85.58
39363;BME280;25088;43.238;23.110;2022-07-29T05:07:00;96582.78;;;23.84;86.11
39363;BME280;25088;43.238;23.110;2022-07-29T05:09:25;96585.41;;;24.02;84.21
39363;BME280;25088;43.238;23.110;2022-07-29T05:11:51;96590.78;;;24.07;83.16
39363;BME280;25088;43.238;23.110;2022-07-29T05:14:16;96589.81;;;24.23;81.44
39363;BME280;25088;43.238;23.110;2022-07-29T05:16:42;96594.63;;;24.35;81.08
39363;BME280;25088;43.238;23.110;2022-07-29T05:19:08;96591.09;;;24.47;80.69
39363;BME280;25088;43.238;23.110;2022-07-29T05:21:34;96602.28;;;24.59;80.34
39363;BME280;25088;43.238;23.110;2022-07-29T05:24:00;96603.41;;;24.46;80.67
39363;BME280;25088;43.238;23.110;2022-07-29T05:26:25;96599.59;;;24.30;81.86
39363;BME280;25088;43.238;23.110;2022-07-29T05:28:51;96615.94;;;24.40;80.99
39363;BME280;25088;43.238;23.110;2022-07-29T05:31:16;96617.03;;;24.47;80.65
39363;BME280;25088;43.238;23.110;2022-07-29T05:33:42;96614.56;;;24.46;80.20
39363;BME280;25088;43.238;23.110;2022-07-29T05:36:08;96585.50;;;24.26;80.46
39363;BME280;25088;43.238;23.110;2022-07-29T05:38:34;96610.53;;;24.56;79.74
39363;BME280;25088;43.238;23.110;2022-07-29T05:41:00;96620.13;;;24.79;78.25
39363;BME280;25088;43.238;23.110;2022-07-29T05:43:27;96618.66;;;24.82;78.13
39363;BME280;25088;43.238;23.110;2022-07-29T05:45:53;96629.09;;;24.85;78.09
39363;BME280;25088;43.238;23.110;2022-07-29T05:48:18;96621.69;;;25.01;77.79
39363;BME280;25088;43.238;23.110;2022-07-29T05:50:43;96632.25;;;25.16;76.46
39363;BME280;25088;43.238;23.110;2022-07-29T05:53:09;96639.75;;;25.04;76.91
39363;BME280;25088;43.238;23.110;2022-07-29T05:55:34;96624.00;;;24.87;77.49
39363;BME280;25088;43.238;23.110;2022-07-29T05:58:00;96634.03;;;25.00;77.31
39363;BME280;25088;43.238;23.110;2022-07-29T06:00:25;96621.69;;;25.01;77.48
39363;BME280;25088;43.238;23.110;2022-07-29T06:02:51;96623.78;;;24.92;77.26
39363;BME280;25088;43.238;23.110;2022-07-29T06:05:16;96611.44;;;24.93;76.58
39363;BME280;25088;43.238;23.110;2022-07-29T06:07:42;96635.78;;;24.92;76.48
39363;BME280;25088;43.238;23.110;2022-07-29T06:10:08;96628.56;;;24.91;76.60
39363;BME280;25088;43.238;23.110;2022-07-29T06:12:34;96636.75;;;25.09;75.50
39363;BME280;25088;43.238;23.110;2022-07-29T06:14:59;96625.19;;;24.98;75.61
39363;BME280;25088;43.238;23.110;2022-07-29T06:17:25;96628.75;;;24.86;75.90
39363;BME280;25088;43.238;23.110;2022-07-29T06:19:50;96633.16;;;24.75;76.52
39363;BME280;25088;43.238;23.110;2022-07-29T06:22:16;96587.59;;;24.50;77.01
39363;BME280;25088;43.238;23.110;2022-07-29T06:24:42;96616.84;;;24.65;77.22
39363;BME280;25088;43.238;23.110;2022-07-29T06:27:12;96617.47;;;24.83;76.03
39363;BME280;25088;43.238;23.110;2022-07-29T06:29:37;96634.78;;;25.09;75.32
39363;BME280;25088;43.238;23.110;2022-07-29T06:32:03;96625.47;;;25.17;75.13
39363;BME280;25088;43.238;23.110;2022-07-29T06:34:29;96628.59;;;25.16;74.29
39363;BME280;25088;43.238;23.110;2022-07-29T06:36:55;96607.50;;;24.94;75.47
39363;BME280;25088;43.238;23.110;2022-07-29T06:39:21;96600.44;;;25.09;74.88
39363;BME280;25088;43.238;23.110;2022-07-29T06:41:47;96603.00;;;25.26;73.23
39363;BME280;25088;43.238;23.110;2022-07-29T06:44:16;96624.56;;;25.38;73.16
39363;BME280;25088;43.238;23.110;2022-07-29T06:46:43;96605.91;;;25.30;73.32
39363;BME280;25088;43.238;23.110;2022-07-29T06:49:09;96624.69;;;25.41;72.56
39363;BME280;25088;43.238;23.110;2022-07-29T06:51:35;96612.19;;;25.39;72.59
39363;BME280;25088;43.238;23.110;2022-07-29T06:54:01;96623.59;;;25.58;72.54
39363;BME280;25088;43.238;23.110;2022-07-29T06:56:27;96621.94;;;26.06;70.87
39363;BME280;25088;43.238;23.110;2022-07-29T06:58:53;96617.66;;;26.24;69.20
39363;BME280;25088;43.238;23.110;2022-07-29T07:01:18;96617.38;;;26.42;67.98
39363;BME280;25088;43.238;23.110;2022-07-29T07:03:44;96608.16;;;26.69;66.61
39363;BME280;25088;43.238;23.110;2022-07-29T07:06:10;96593.06;;;27.18;64.46
39363;BME280;25088;43.238;23.110;2022-07-29T07:08:35;96597.72;;;27.61;62.92
39363;BME280;25088;43.238;23.110;2022-07-29T07:11:01;96597.25;;;28.10;60.25
39363;BME280;25088;43.238;23.110;2022-07-29T07:13:27;96576.56;;;28.38;58.31
39363;BME280;25088;43.238;23.110;2022-07-29T07:15:57;96598.88;;;28.92;57.38
39363;BME280;25088;43.238;23.110;2022-07-29T07:18:22;96605.03;;;29.44;54.42
39363;BME280;25088;43.238;23.110;2022-07-29T07:20:48;96596.06;;;29.34;55.11
39363;BME280;25088;43.238;23.110;2022-07-29T07:23:14;96593.78;;;29.67;53.95
39363;BME280;25088;43.238;23.110;2022-07-29T07:25:42;96603.25;;;30.11;52.05
39363;BME280;25088;43.238;23.110;2022-07-29T07:28:08;96590.56;;;30.21;53.04
39363;BME280;25088;43.238;23.110;2022-07-29T07:30:34;96591.59;;;30.40;51.55
39363;BME280;25088;43.238;23.110;2022-07-29T07:32:59;96595.91;;;30.63;50.90
39363;BME280;25088;43.238;23.110;2022-07-29T07:35:25;96593.13;;;31.04;50.10
39363;BME280;25088;43.238;23.110;2022-07-29T07:37:53;96589.88;;;30.99;49.92
39363;BME280;25088;43.238;23.110;2022-07-29T07:40:19;96579.16;;;30.78;51.28
39363;BME280;25088;43.238;23.110;2022-07-29T07:42:44;96598.78;;;31.04;50.61
39363;BME280;25088;43.238;23.110;2022-07-29T07:45:10;96578.31;;;31.59;48.92
39363;BME280;25088;43.238;23.110;2022-07-29T07:47:36;96593.09;;;31.42;49.15
39363;BME280;25088;43.238;23.110;2022-07-29T07:50:06;96595.47;;;31.87;47.17
39363;BME280;25088;43.238;23.110;2022-07-29T07:52:32;96585.28;;;31.76;47.89
39363;BME280;25088;43.238;23.110;2022-07-29T07:54:58;96590.84;;;31.65;48.12
39363;BME280;25088;43.238;23.110;2022-07-29T07:57:24;96594.56;;;31.76;47.75
39363;BME280;25088;43.238;23.110;2022-07-29T07:59:49;96595.59;;;32.05;47.44
39363;BME280;25088;43.238;23.110;2022-07-29T08:02:15;96597.91;;;31.89;47.85
39363;BME280;25088;43.238;23.110;2022-07-29T08:04:40;96595.69;;;32.27;46.86
39363;BME280;25088;43.238;23.110;2022-07-29T08:07:07;96593.78;;;32.45;46.63
39363;BME280;25088;43.238;23.110;2022-07-29T08:09:34;96590.56;;;32.43;45.30
39363;BME280;25088;43.238;23.110;2022-07-29T08:11:59;96597.22;;;33.01;44.47
39363;BME280;25088;43.238;23.110;2022-07-29T08:14:27;96598.88;;;33.23;43.84
39363;BME280;25088;43.238;23.110;2022-07-29T08:16:53;96592.03;;;33.60;43.42
39363;BME280;25088;43.238;23.110;2022-07-29T08:19:19;96595.63;;;33.85;43.92
39363;BME280;25088;43.238;23.110;2022-07-29T08:21:44;96581.91;;;33.66;44.20
39363;BME280;25088;43.238;23.110;2022-07-29T08:24:10;96608.16;;;33.13;44.27
39363;BME280;25088;43.238;23.110;2022-07-29T08:26:54;96601.28;;;33.17;44.61
39363;BME280;25088;43.238;23.110;2022-07-29T08:29:19;96598.09;;;33.58;42.76
39363;BME280;25088;43.238;23.110;2022-07-29T08:31:45;96601.69;;;34.09;42.11
39363;BME280;25088;43.238;23.110;2022-07-29T08:34:11;96600.50;;;33.95;42.35
39363;BME280;25088;43.238;23.110;2022-07-29T08:36:37;96595.63;;;33.85;43.33
39363;BME280;25088;43.238;23.110;2022-07-29T08:39:04;96600.50;;;34.03;42.41
39363;BME280;25088;43.238;23.110;2022-07-29T08:41:30;96595.03;;;34.65;41.47
39363;BME280;25088;43.238;23.110;2022-07-29T08:43:56;96595.88;;;34.62;41.06
39363;BME280;25088;43.238;23.110;2022-07-29T08:46:22;96599.53;;;34.63;40.98
39363;BME280;25088;43.238;23.110;2022-07-29T08:48:47;96585.34;;;35.29;39.35
39363;BME280;25088;43.238;23.110;2022-07-29T08:51:18;96602.69;;;35.45;39.10
39363;BME280;25088;43.238;23.110;2022-07-29T08:53:45;96593.88;;;35.26;39.21
39363;BME280;25088;43.238;23.110;2022-07-29T08:56:14;96598.84;;;35.14;39.50
39363;BME280;25088;43.238;23.110;2022-07-29T08:58:42;96583.97;;;34.96;39.18
39363;BME280;25088;43.238;23.110;2022-07-29T09:01:08;96600.97;;;35.59;39.07
39363;BME280;25088;43.238;23.110;2022-07-29T09:03:37;96591.75;;;34.74;40.25
39363;BME280;25088;43.238;23.110;2022-07-29T09:06:03;96596.19;;;34.79;40.77
39363;BME280;25088;43.238;23.110;2022-07-29T09:08:31;96588.78;;;35.06;38.81
39363;BME280;25088;43.238;23.110;2022-07-29T09:10:57;96594.78;;;35.71;38.17
39363;BME280;25088;43.238;23.110;2022-07-29T09:13:23;96587.66;;;35.93;38.13
39363;BME280;25088;43.238;23.110;2022-07-29T09:15:50;96580.94;;;36.18;37.67
39363;BME280;25088;43.238;23.110;2022-07-29T09:18:34;96593.78;;;35.47;38.67
39363;BME280;25088;43.238;23.110;2022-07-29T09:21:02;96588.78;;;36.07;37.64
39363;BME280;25088;43.238;23.110;2022-07-29T09:24:11;96582.97;;;36.17;37.45
39363;BME280;25088;43.238;23.110;2022-07-29T09:26:40;96572.75;;;36.23;37.63
39363;BME280;25088;43.238;23.110;2022-07-29T09:29:14;96576.47;;;36.55;36.91
39363;BME280;25088;43.238;23.110;2022-07-29T09:31:45;96578.78;;;36.63;36.09
39363;BME280;25088;43.238;23.110;2022-07-29T09:34:12;96574.97;;;36.77;36.20
39363;BME280;25088;43.238;23.110;2022-07-29T09:36:40;96577.72;;;36.16;37.65
39363;BME280;25088;43.238;23.110;2022-07-29T09:39:06;96562.50;;;36.67;37.08
39363;BME280;25088;43.238;23.110;2022-07-29T09:41:52;96566.78;;;37.10;36.48
39363;BME280;25088;43.238;23.110;2022-07-29T09:44:19;96561.25;;;36.34;37.10
39363;BME280;25088;43.238;23.110;2022-07-29T09:47:02;96565.16;;;36.51;37.44
39363;BME280;25088;43.238;23.110;2022-07-29T09:49:34;96542.41;;;37.09;35.80
39363;BME280;25088;43.238;23.110;2022-07-29T09:52:08;96556.47;;;37.46;36.00
39363;BME280;25088;43.238;23.110;2022-07-29T09:54:34;96547.81;;;36.99;36.64
39363;BME280;25088;43.238;23.110;2022-07-29T09:57:05;96544.66;;;37.21;36.27
39363;BME280;25088;43.238;23.110;2022-07-29T09:59:31;96548.25;;;37.52;35.56
39363;BME280;25088;43.238;23.110;2022-07-29T10:01:56;96544.41;;;37.12;36.21
39363;BME280;25088;43.238;23.110;2022-07-29T10:04:22;96542.81;;;37.34;35.46
39363;BME280;25088;43.238;23.110;2022-07-29T10:07:01;96531.47;;;39.00;33.22
39363;BME280;25088;43.238;23.110;2022-07-29T10:09:27;96533.41;;;38.87;33.84
39363;BME280;25088;43.238;23.110;2022-07-29T10:14:31;96538.34;;;37.84;35.07
39363;BME280;25088;43.238;23.110;2022-07-29T10:16:59;96523.13;;;38.34;34.67
39363;BME280;25088;43.238;23.110;2022-07-29T10:19:25;96532.16;;;38.09;34.82
39363;BME280;25088;43.238;23.110;2022-07-29T10:21:52;96531.31;;;38.51;34.17
39363;BME280;25088;43.238;23.110;2022-07-29T10:24:18;96518.38;;;37.84;35.39
39363;BME280;25088;43.238;23.110;2022-07-29T10:26:44;96537.41;;;37.67;36.17
39363;BME280;25088;43.238;23.110;2022-07-29T10:29:11;96538.84;;;37.28;35.90
39363;BME280;25088;43.238;23.110;2022-07-29T10:31:47;96531.31;;;38.51;35.06
39363;BME280;25088;43.238;23.110;2022-07-29T10:34:43;96521.81;;;38.38;34.44
39363;BME280;25088;43.238;23.110;2022-07-29T10:40:09;96530.47;;;37.91;34.91
39363;BME280;25088;43.238;23.110;2022-07-29T10:42:55;96514.88;;;38.95;33.65
39363;BME280;25088;43.238;23.110;2022-07-29T10:45:23;96515.16;;;39.83;32.25
39363;BME280;25088;43.238;23.110;2022-07-29T10:48:02;96495.00;;;40.02;32.65
39363;BME280;25088;43.238;23.110;2022-07-29T10:50:52;96500.34;;;39.06;33.69
39363;BME280;25088;43.238;23.110;2022-07-29T10:53:18;96483.13;;;39.42;33.77
39363;BME280;25088;43.238;23.110;2022-07-29T10:55:44;96502.97;;;38.44;34.10
39363;BME280;25088;43.238;23.110;2022-07-29T10:58:18;96497.38;;;38.93;33.59
39363;BME280;25088;43.238;23.110;2022-07-29T11:00:46;96490.28;;;39.50;32.63
39363;BME280;25088;43.238;23.110;2022-07-29T11:03:47;96500.53;;;39.15;33.69
39363;BME280;25088;43.238;23.110;2022-07-29T11:06:13;96499.94;;;38.51;33.85
39363;BME280;25088;43.238;23.110;2022-07-29T11:08:39;96492.03;;;38.79;33.96
39363;BME280;25088;43.238;23.110;2022-07-29T11:13:53;96490.38;;;39.92;32.47
39363;BME280;25088;43.238;23.110;2022-07-29T11:16:21;96494.78;;;40.26;32.14
39363;BME280;25088;43.238;23.110;2022-07-29T11:21:36;96481.84;;;40.21;32.33
39363;BME280;25088;43.238;23.110;2022-07-29T11:24:21;96457.00;;;39.89;32.12
39363;BME280;25088;43.238;23.110;2022-07-29T11:27:07;96495.81;;;40.03;31.64
39363;BME280;25088;43.238;23.110;2022-07-29T11:29:35;96482.81;;;39.86;31.82
39363;BME280;25088;43.238;23.110;2022-07-29T11:32:11;96499.56;;;39.38;33.21
39363;BME280;25088;43.238;23.110;2022-07-29T11:34:38;96486.41;;;38.92;33.22
39363;BME280;25088;43.238;23.110;2022-07-29T11:44:58;96487.97;;;40.07;31.67
39363;BME280;25088;43.238;23.110;2022-07-29T11:47:28;96484.13;;;39.36;32.77
39363;BME280;25088;43.238;23.110;2022-07-29T11:49:57;96489.41;;;38.48;34.13
39363;BME280;25088;43.238;23.110;2022-07-29T11:52:24;96441.59;;;38.36;33.75
39363;BME280;25088;43.238;23.110;2022-07-29T11:54:58;96480.94;;;37.85;34.90
39363;BME280;25088;43.238;23.110;2022-07-29T11:57:28;96486.94;;;37.20;35.88
39363;BME280;25088;43.238;23.110;2022-07-29T11:59:55;96443.72;;;38.12;34.47
39363;BME280;25088;43.238;23.110;2022-07-29T12:02:20;96476.34;;;39.52;32.67
39363;BME280;25088;43.238;23.110;2022-07-29T12:04:53;96471.47;;;40.40;31.74
39363;BME280;25088;43.238;23.110;2022-07-29T12:07:33;96475.66;;;39.32;32.76
39363;BME280;25088;43.238;23.110;2022-07-29T12:09:59;96449.53;;;38.65;33.60
39363;BME280;25088;43.238;23.110;2022-07-29T12:12:25;96451.88;;;39.68;32.28
39363;BME280;25088;43.238;23.110;2022-07-29T12:14:51;96458.81;;;40.67;31.34
39363;BME280;25088;43.238;23.110;2022-07-29T12:17:30;96465.88;;;39.62;32.24
39363;BME280;25088;43.238;23.110;2022-07-29T12:19:59;96463.13;;;40.04;32.02
39363;BME280;25088;43.238;23.110;2022-07-29T12:22:26;96468.03;;;38.57;33.57
39363;BME280;25088;43.238;23.110;2022-07-29T12:24:53;96465.91;;;37.81;34.64
39363;BME280;25088;43.238;23.110;2022-07-29T12:27:19;96468.81;;;37.77;35.31
39363;BME280;25088;43.238;23.110;2022-07-29T12:29:54;96452.00;;;36.66;36.71
39363;BME280;25088;43.238;23.110;2022-07-29T12:32:20;96473.25;;;35.89;38.21
39363;BME280;25088;43.238;23.110;2022-07-29T12:34:46;96456.97;;;35.97;38.70
39363;BME280;25088;43.238;23.110;2022-07-29T12:37:11;96448.88;;;36.26;37.81
39363;BME280;25088;43.238;23.110;2022-07-29T12:39:37;96451.25;;;38.02;35.78
39363;BME280;25088;43.238;23.110;2022-07-29T12:42:14;96432.63;;;39.07;33.62
39363;BME280;25088;43.238;23.110;2022-07-29T12:44:50;96417.56;;;38.53;34.38
39363;BME280;25088;43.238;23.110;2022-07-29T12:47:17;96407.66;;;38.42;34.56
39363;BME280;25088;43.238;23.110;2022-07-29T12:49:44;96440.91;;;38.85;33.83
39363;BME280;25088;43.238;23.110;2022-07-29T12:52:32;96369.66;;;38.81;33.96
39363;BME280;25088;43.238;23.110;2022-07-29T12:54:58;96413.44;;;39.23;32.57
39363;BME280;25088;43.238;23.110;2022-07-29T12:57:24;96426.94;;;39.97;32.10
39363;BME280;25088;43.238;23.110;2022-07-29T13:00:07;96433.28;;;39.76;31.86
39363;BME280;25088;43.238;23.110;2022-07-29T13:02:36;96433.78;;;38.40;34.23
39363;BME280;25088;43.238;23.110;2022-07-29T13:05:03;96423.00;;;38.28;34.44
39363;BME280;25088;43.238;23.110;2022-07-29T13:07:31;96434.44;;;36.98;36.47
39363;BME280;25088;43.238;23.110;2022-07-29T13:12:35;96423.56;;;36.35;37.06
39363;BME280;25088;43.238;23.110;2022-07-29T13:15:14;96429.53;;;36.14;37.32
39363;BME280;25088;43.238;23.110;2022-07-29T13:17:44;96403.59;;;36.42;37.55
39363;BME280;25088;43.238;23.110;2022-07-29T13:20:11;96428.28;;;36.99;36.31
39363;BME280;25088;43.238;23.110;2022-07-29T13:22:41;96401.09;;;38.25;34.63
39363;BME280;25088;43.238;23.110;2022-07-29T13:25:09;96413.22;;;38.29;34.94
39363;BME280;25088;43.238;23.110;2022-07-29T13:27:37;96413.16;;;37.73;35.05
39363;BME280;25088;43.238;23.110;2022-07-29T13:30:07;96413.94;;;38.33;34.64
39363;BME280;25088;43.238;23.110;2022-07-29T13:32:34;96401.88;;;38.45;33.55
39363;BME280;25088;43.238;23.110;2022-07-29T13:35:01;96405.50;;;38.82;33.42